LEMHDTMB

Guest
Details From LEMH - Menorca
To DTMB - Monastir Habib Bourguiba Intl
Flight Number -
Tags generated
Created
Modified
Stats Distance 434 nm / 804 km
Max Altitude 35,000 ft / 10,668 m
Waypoints 7
Social Downloads 0
Likes 0
Share VATSIM

Download

Looking for another format? Having issues loading an existing format? Contact us
Advertisement - Login to hide

Notes

Basic altitude profile: - Ascent Rate: 2500ft/min - Ascent Speed: 250kts - Cruise Altitude: 35000ft - Cruise Speed: 420kts - Descent Rate: 1500ft/min - Descent Speed: 250kts Options: - Use NATs: yes - Use PACOTS: yes - Use low airways: yes - Use high airways: yes

Route

LEMH REQIN SALMA UG6 ANB UA411 LABIP DTMB

ID Type Via Altitude Latitude Longitude Leg Dist Tot Dist Heading (true) Name
O LEMH APT - 0 ft / 0 m 39.86222˚ 4.21976˚ - 0 nm - Menorca
REQIN FIX - 35,000 ft / 10,668 m 39.00000˚ 6.25000˚ 107 nm 107 nm 118° / 119° -
SALMA FIX - 35,000 ft / 10,668 m 39.00000˚ 6.71667˚ 21 nm 129 nm 90° / 90° -
ANB VOR UG6 (AWY-HI) 35,000 ft / 10,668 m 36.81667˚ 7.80000˚ 140 nm 270 nm 158° / 159° ANNABA VOR-DME
MORJA FIX UA411 (AWY-HI) 25,300 ft / 7,711 m 36.83444˚ 8.65000˚ 40 nm 310 nm 88° / 89° -
LABIP FIX UA411 (AWY-HI) 23,500 ft / 7,163 m 36.82722˚ 8.97500˚ 15 nm 326 nm 91° / 92° -
O DTMB APT - 0 ft / 0 m 35.75784˚ 10.75403˚ 107 nm 433 nm 126° / 127° Monastir Habib Bourguiba Intl

Altitude Profile

Advertisement - Login to hide

Weather


0- 5 10 15 20 25 30 35+ Temperature / ° C

Clouds and Precipitation
Forecast for 2018-05-21 12:00 UTC. Updated 4 hours ago

Ground ~20,000 ft ~40,000 ft Winds

LEMH

Details ICAO LEMH (MAH)
Name Menorca
Region Spain
Timezone Europe/Madrid (UTC+2.0)
Stats Elevation 298 ft / 91 m (AMSL)
Location 39.862221° 4.219762°
Runways 2
Magnetic Variation 1.372° E

METAR

LEMH 211500Z 31005KT 250V360 9999 VCSH SCT020 FEW022TCU BKN035 18/14 Q1010

Decode

TAF

TAF LEMH 211400Z 2115/2215 VRB03KT 9999 FEW020 TX23/2212Z TN13/2206Z PROB40 TEMPO 2115/2118 4000 TSRA FEW020CB BKN025 BECMG 2208/2210 22010KT

Decode

Departure Runways

ID Width Length Bearing (true) Bearing (mag) Surface Threshold Offset Overrun Length
01L 148 ft / 45 m 7,723 ft / 2,354 m 8.97° 7.60° Asphalt 0 ft / 0 m 164 ft / 50 m
01R 148 ft / 45 m 6,903 ft / 2,104 m 8.97° 7.60° Asphalt 0 ft / 0 m 0 ft / 0 m
19L 148 ft / 45 m 6,903 ft / 2,104 m 188.97° 187.60° Asphalt 0 ft / 0 m 0 ft / 0 m
19R 148 ft / 45 m 7,723 ft / 2,354 m 188.97° 187.60° Asphalt 0 ft / 0 m 164 ft / 50 m

DTMB

Details ICAO DTMB (MIR)
Name Monastir Habib Bourguiba Intl
Region Tunisia
Timezone Africa/Tunis (UTC+1.0)
Stats Elevation 9 ft / 3 m (AMSL)
Location 35.757843° 10.754025°
Runways 1
Magnetic Variation 2.474° E

METAR

DTMB 211500Z 03010KT 360V060 9999 FEW023 22/17 Q1010

Decode

TAF

TAF DTMB 211100Z 2112/2212 03010KT 8000 NSC= TAF VLVT 211100Z 2112/2212 18006KT 5000 TS SCT020 FEW027CB SCT050 TEMPO 2118/2122 3000 TS/BR FEW023CB SCT040 SCT100

Decode

Destination Runways

ID Width Length Bearing (true) Bearing (mag) Surface Threshold Offset Overrun Length
07 148 ft / 45 m 9,627 ft / 2,934 m 73.54° 71.07° Asphalt 0 ft / 0 m 164 ft / 50 m
25 148 ft / 45 m 9,627 ft / 2,934 m 253.56° 251.09° Asphalt 0 ft / 0 m 164 ft / 50 m

Approach Navaids

Runway Type Ident Frequency Range Bearing (true) Bearing (mag) Slope Elevation
07 Localiser MIS 109.90 MHz 18 nm / 33 km 73.57° 71.09° - 9 ft / 3 m (AMSL)
07 Glidescope MIS 109.90 MHz 10 nm / 19 km 73.55° 71.08° 3.00° 9 ft / 3 m (AMSL)

Popular Alternatives